sensor_id;sensor_type;location;lat;lon;timestamp;temperature;humidity
820;DHT22;392;48.838;2.322;2023-04-24T00:02:03;10.20;51.90
820;DHT22;392;48.838;2.322;2023-04-24T00:04:32;10.20;52.30
820;DHT22;392;48.838;2.322;2023-04-24T00:06:59;10.20;52.40
820;DHT22;392;48.838;2.322;2023-04-24T00:09:27;10.10;52.80
820;DHT22;392;48.838;2.322;2023-04-24T00:11:55;10.10;53.10
820;DHT22;392;48.838;2.322;2023-04-24T00:14:23;10.10;53.40
820;DHT22;392;48.838;2.322;2023-04-24T00:16:50;10.10;53.80
820;DHT22;392;48.838;2.322;2023-04-24T00:19:18;10.10;54.20
820;DHT22;392;48.838;2.322;2023-04-24T00:21:47;10.00;54.60
820;DHT22;392;48.838;2.322;2023-04-24T00:24:15;10.00;54.40
820;DHT22;392;48.838;2.322;2023-04-24T00:26:43;10.10;54.50
820;DHT22;392;48.838;2.322;2023-04-24T00:29:12;10.00;54.30
820;DHT22;392;48.838;2.322;2023-04-24T00:31:40;10.00;54.20
820;DHT22;392;48.838;2.322;2023-04-24T00:34:07;10.00;54.30
820;DHT22;392;48.838;2.322;2023-04-24T00:36:36;10.00;54.50
820;DHT22;392;48.838;2.322;2023-04-24T00:39:03;10.00;54.80
820;DHT22;392;48.838;2.322;2023-04-24T00:41:31;10.00;54.90
820;DHT22;392;48.838;2.322;2023-04-24T00:43:58;10.00;54.70
820;DHT22;392;48.838;2.322;2023-04-24T00:46:27;10.00;54.30
820;DHT22;392;48.838;2.322;2023-04-24T00:48:56;9.90;55.20
820;DHT22;392;48.838;2.322;2023-04-24T00:51:23;9.90;55.30
820;DHT22;392;48.838;2.322;2023-04-24T00:53:51;9.90;55.70
820;DHT22;392;48.838;2.322;2023-04-24T00:56:19;9.80;56.20
820;DHT22;392;48.838;2.322;2023-04-24T00:58:47;9.80;56.40
820;DHT22;392;48.838;2.322;2023-04-24T01:01:14;9.80;56.40
820;DHT22;392;48.838;2.322;2023-04-24T01:03:43;9.80;56.50
820;DHT22;392;48.838;2.322;2023-04-24T01:06:12;9.80;56.60
820;DHT22;392;48.838;2.322;2023-04-24T01:08:40;9.80;57.00
820;DHT22;392;48.838;2.322;2023-04-24T01:11:08;9.80;57.10
820;DHT22;392;48.838;2.322;2023-04-24T01:13:35;9.80;57.30
820;DHT22;392;48.838;2.322;2023-04-24T01:16:03;9.80;57.30
820;DHT22;392;48.838;2.322;2023-04-24T01:18:31;9.90;57.20
820;DHT22;392;48.838;2.322;2023-04-24T01:21:03;9.90;56.80
820;DHT22;392;48.838;2.322;2023-04-24T01:23:32;10.00;55.10
820;DHT22;392;48.838;2.322;2023-04-24T01:26:00;10.00;54.80
820;DHT22;392;48.838;2.322;2023-04-24T01:28:28;10.00;54.60
820;DHT22;392;48.838;2.322;2023-04-24T01:30:55;10.00;54.30
820;DHT22;392;48.838;2.322;2023-04-24T01:33:23;9.90;55.80
820;DHT22;392;48.838;2.322;2023-04-24T01:35:50;9.90;55.50
820;DHT22;392;48.838;2.322;2023-04-24T01:38:18;9.90;55.60
820;DHT22;392;48.838;2.322;2023-04-24T01:40:46;9.90;55.30
820;DHT22;392;48.838;2.322;2023-04-24T01:43:14;9.90;55.70
820;DHT22;392;48.838;2.322;2023-04-24T01:45:41;9.80;55.50
820;DHT22;392;48.838;2.322;2023-04-24T01:48:09;9.80;55.90
820;DHT22;392;48.838;2.322;2023-04-24T01:50:36;9.80;56.20
820;DHT22;392;48.838;2.322;2023-04-24T01:53:03;9.80;56.40
820;DHT22;392;48.838;2.322;2023-04-24T01:55:31;9.90;56.60
820;DHT22;392;48.838;2.322;2023-04-24T01:58:01;9.90;56.40
820;DHT22;392;48.838;2.322;2023-04-24T02:00:28;9.90;55.90
820;DHT22;392;48.838;2.322;2023-04-24T02:02:56;10.00;54.80
820;DHT22;392;48.838;2.322;2023-04-24T02:05:25;10.00;54.70
820;DHT22;392;48.838;2.322;2023-04-24T02:07:52;10.00;53.90
820;DHT22;392;48.838;2.322;2023-04-24T02:10:20;10.00;53.60
820;DHT22;392;48.838;2.322;2023-04-24T02:12:47;10.00;53.70
820;DHT22;392;48.838;2.322;2023-04-24T02:15:16;10.00;54.20
820;DHT22;392;48.838;2.322;2023-04-24T02:17:44;10.00;54.20
820;DHT22;392;48.838;2.322;2023-04-24T02:20:11;10.00;54.40
820;DHT22;392;48.838;2.322;2023-04-24T02:22:38;10.00;54.40
820;DHT22;392;48.838;2.322;2023-04-24T02:25:06;10.00;54.40
820;DHT22;392;48.838;2.322;2023-04-24T02:27:34;10.00;54.30
820;DHT22;392;48.838;2.322;2023-04-24T02:30:05;10.00;54.20
820;DHT22;392;48.838;2.322;2023-04-24T02:32:35;10.00;54.00
820;DHT22;392;48.838;2.322;2023-04-24T02:35:03;10.00;54.10
820;DHT22;392;48.838;2.322;2023-04-24T02:37:31;10.00;54.30
820;DHT22;392;48.838;2.322;2023-04-24T02:39:59;10.00;53.90
820;DHT22;392;48.838;2.322;2023-04-24T02:42:26;10.00;54.10
820;DHT22;392;48.838;2.322;2023-04-24T02:44:54;10.00;54.30
820;DHT22;392;48.838;2.322;2023-04-24T02:47:21;10.00;54.50
820;DHT22;392;48.838;2.322;2023-04-24T02:49:50;10.00;54.90
820;DHT22;392;48.838;2.322;2023-04-24T02:52:17;10.00;55.10
820;DHT22;392;48.838;2.322;2023-04-24T02:54:44;10.00;55.20
820;DHT22;392;48.838;2.322;2023-04-24T02:57:12;10.00;55.20
820;DHT22;392;48.838;2.322;2023-04-24T02:59:41;10.00;55.30
820;DHT22;392;48.838;2.322;2023-04-24T03:02:09;10.00;55.40
820;DHT22;392;48.838;2.322;2023-04-24T03:04:36;10.00;55.50
820;DHT22;392;48.838;2.322;2023-04-24T03:07:05;10.00;55.50
820;DHT22;392;48.838;2.322;2023-04-24T03:09:32;10.00;55.50
820;DHT22;392;48.838;2.322;2023-04-24T03:11:59;10.00;56.00
820;DHT22;392;48.838;2.322;2023-04-24T03:14:27;10.00;56.10
820;DHT22;392;48.838;2.322;2023-04-24T03:16:56;10.00;55.80
820;DHT22;392;48.838;2.322;2023-04-24T03:19:24;10.00;56.00
820;DHT22;392;48.838;2.322;2023-04-24T03:21:59;10.00;55.80
820;DHT22;392;48.838;2.322;2023-04-24T03:24:30;10.00;56.00
820;DHT22;392;48.838;2.322;2023-04-24T03:26:58;10.00;55.70
820;DHT22;392;48.838;2.322;2023-04-24T03:29:42;10.00;55.60
820;DHT22;392;48.838;2.322;2023-04-24T03:32:10;9.90;56.70
820;DHT22;392;48.838;2.322;2023-04-24T03:34:38;9.90;57.10
820;DHT22;392;48.838;2.322;2023-04-24T03:37:07;9.90;56.90
820;DHT22;392;48.838;2.322;2023-04-24T03:39:39;9.90;56.70
820;DHT22;392;48.838;2.322;2023-04-24T03:42:07;9.90;56.80
820;DHT22;392;48.838;2.322;2023-04-24T03:44:45;9.90;57.10
820;DHT22;392;48.838;2.322;2023-04-24T03:47:12;9.90;57.40
820;DHT22;392;48.838;2.322;2023-04-24T03:49:40;9.90;57.50
820;DHT22;392;48.838;2.322;2023-04-24T03:52:08;9.90;57.50
820;DHT22;392;48.838;2.322;2023-04-24T03:54:36;9.90;57.90
820;DHT22;392;48.838;2.322;2023-04-24T03:57:06;9.90;57.90
820;DHT22;392;48.838;2.322;2023-04-24T03:59:36;9.80;57.80
820;DHT22;392;48.838;2.322;2023-04-24T04:02:10;9.80;57.80
820;DHT22;392;48.838;2.322;2023-04-24T04:04:38;9.80;58.10
820;DHT22;392;48.838;2.322;2023-04-24T04:07:05;9.80;58.70
820;DHT22;392;48.838;2.322;2023-04-24T04:09:33;9.80;58.90
820;DHT22;392;48.838;2.322;2023-04-24T04:12:01;9.90;58.80
820;DHT22;392;48.838;2.322;2023-04-24T04:14:30;9.90;58.70
820;DHT22;392;48.838;2.322;2023-04-24T04:16:57;9.90;58.50
820;DHT22;392;48.838;2.322;2023-04-24T04:19:25;9.90;58.40
820;DHT22;392;48.838;2.322;2023-04-24T04:21:53;10.00;57.60
820;DHT22;392;48.838;2.322;2023-04-24T04:24:42;9.90;58.40
820;DHT22;392;48.838;2.322;2023-04-24T04:27:10;10.00;57.60
820;DHT22;392;48.838;2.322;2023-04-24T04:29:55;10.00;57.10
820;DHT22;392;48.838;2.322;2023-04-24T04:32:23;10.00;56.50
820;DHT22;392;48.838;2.322;2023-04-24T04:34:50;9.90;57.60
820;DHT22;392;48.838;2.322;2023-04-24T04:37:19;9.90;58.00
820;DHT22;392;48.838;2.322;2023-04-24T04:40:09;9.90;58.50
820;DHT22;392;48.838;2.322;2023-04-24T04:42:46;9.90;59.20
820;DHT22;392;48.838;2.322;2023-04-24T04:45:15;9.90;59.20
820;DHT22;392;48.838;2.322;2023-04-24T04:48:03;9.90;59.20
820;DHT22;392;48.838;2.322;2023-04-24T04:50:32;9.90;59.20
820;DHT22;392;48.838;2.322;2023-04-24T04:53:05;9.90;58.70
820;DHT22;392;48.838;2.322;2023-04-24T04:55:36;9.90;58.90
820;DHT22;392;48.838;2.322;2023-04-24T04:58:17;9.80;59.20
820;DHT22;392;48.838;2.322;2023-04-24T05:00:49;9.80;59.40
820;DHT22;392;48.838;2.322;2023-04-24T05:03:28;9.80;60.00
820;DHT22;392;48.838;2.322;2023-04-24T05:06:01;9.80;60.40
820;DHT22;392;48.838;2.322;2023-04-24T05:08:33;9.80;60.90
820;DHT22;392;48.838;2.322;2023-04-24T05:11:05;9.80;60.90
820;DHT22;392;48.838;2.322;2023-04-24T05:13:33;9.80;60.90
820;DHT22;392;48.838;2.322;2023-04-24T05:16:03;9.80;61.00
820;DHT22;392;48.838;2.322;2023-04-24T05:18:31;9.80;61.00
820;DHT22;392;48.838;2.322;2023-04-24T05:20:58;9.80;61.00
820;DHT22;392;48.838;2.322;2023-04-24T05:23:26;9.80;61.20
820;DHT22;392;48.838;2.322;2023-04-24T05:25:55;9.80;61.10
820;DHT22;392;48.838;2.322;2023-04-24T05:28:22;9.90;61.30
820;DHT22;392;48.838;2.322;2023-04-24T05:31:04;9.90;61.30
820;DHT22;392;48.838;2.322;2023-04-24T05:33:32;9.90;61.30
820;DHT22;392;48.838;2.322;2023-04-24T05:35:59;9.90;61.20
820;DHT22;392;48.838;2.322;2023-04-24T05:38:27;10.00;60.00
820;DHT22;392;48.838;2.322;2023-04-24T05:40:54;10.00;60.00
820;DHT22;392;48.838;2.322;2023-04-24T05:43:21;10.00;59.40
820;DHT22;392;48.838;2.322;2023-04-24T05:45:49;10.00;59.60
820;DHT22;392;48.838;2.322;2023-04-24T05:48:19;10.00;59.60
820;DHT22;392;48.838;2.322;2023-04-24T05:50:47;10.00;59.60
820;DHT22;392;48.838;2.322;2023-04-24T05:53:15;10.10;59.50
820;DHT22;392;48.838;2.322;2023-04-24T05:55:42;10.10;59.60
820;DHT22;392;48.838;2.322;2023-04-24T05:58:10;10.10;59.90
820;DHT22;392;48.838;2.322;2023-04-24T06:00:38;10.10;59.50
820;DHT22;392;48.838;2.322;2023-04-24T06:03:08;10.10;59.60
820;DHT22;392;48.838;2.322;2023-04-24T06:05:37;10.20;59.70
820;DHT22;392;48.838;2.322;2023-04-24T06:08:04;10.20;59.40
820;DHT22;392;48.838;2.322;2023-04-24T06:10:35;10.20;59.10
820;DHT22;392;48.838;2.322;2023-04-24T06:13:04;10.20;59.30
820;DHT22;392;48.838;2.322;2023-04-24T06:15:34;10.30;59.40
820;DHT22;392;48.838;2.322;2023-04-24T06:18:10;10.30;59.30
820;DHT22;392;48.838;2.322;2023-04-24T06:20:40;10.40;58.80
820;DHT22;392;48.838;2.322;2023-04-24T06:23:09;10.40;58.70
820;DHT22;392;48.838;2.322;2023-04-24T06:25:36;10.40;58.40
820;DHT22;392;48.838;2.322;2023-04-24T06:28:04;10.40;58.70
820;DHT22;392;48.838;2.322;2023-04-24T06:30:31;10.40;58.70
820;DHT22;392;48.838;2.322;2023-04-24T06:32:59;10.40;59.40
820;DHT22;392;48.838;2.322;2023-04-24T06:35:26;10.40;58.70
820;DHT22;392;48.838;2.322;2023-04-24T06:37:55;10.40;58.70
820;DHT22;392;48.838;2.322;2023-04-24T06:40:22;10.50;58.80
820;DHT22;392;48.838;2.322;2023-04-24T06:42:50;10.50;58.80
820;DHT22;392;48.838;2.322;2023-04-24T06:45:17;10.50;58.80
820;DHT22;392;48.838;2.322;2023-04-24T06:47:45;10.60;58.90
820;DHT22;392;48.838;2.322;2023-04-24T06:50:12;10.60;58.30
820;DHT22;392;48.838;2.322;2023-04-24T06:52:40;10.80;58.00
820;DHT22;392;48.838;2.322;2023-04-24T06:55:09;11.20;56.30
820;DHT22;392;48.838;2.322;2023-04-24T06:57:37;11.40;52.80
820;DHT22;392;48.838;2.322;2023-04-24T07:00:05;11.60;51.90
820;DHT22;392;48.838;2.322;2023-04-24T07:02:35;11.80;50.50
820;DHT22;392;48.838;2.322;2023-04-24T07:05:03;12.10;50.30
820;DHT22;392;48.838;2.322;2023-04-24T07:07:32;12.50;46.00
820;DHT22;392;48.838;2.322;2023-04-24T07:10:00;12.70;46.00
820;DHT22;392;48.838;2.322;2023-04-24T07:12:31;13.00;43.30
820;DHT22;392;48.838;2.322;2023-04-24T07:14:58;13.20;41.90
820;DHT22;392;48.838;2.322;2023-04-24T07:17:27;13.30;40.40
820;DHT22;392;48.838;2.322;2023-04-24T07:19:54;13.20;40.60
820;DHT22;392;48.838;2.322;2023-04-24T07:22:21;13.10;41.00
820;DHT22;392;48.838;2.322;2023-04-24T07:24:49;13.00;41.80
820;DHT22;392;48.838;2.322;2023-04-24T07:27:16;13.00;41.80
820;DHT22;392;48.838;2.322;2023-04-24T07:29:45;12.90;41.70
820;DHT22;392;48.838;2.322;2023-04-24T07:32:12;12.90;41.70
820;DHT22;392;48.838;2.322;2023-04-24T07:34:39;12.90;41.70
820;DHT22;392;48.838;2.322;2023-04-24T07:37:07;12.80;41.90
820;DHT22;392;48.838;2.322;2023-04-24T07:39:34;12.70;42.90
820;DHT22;392;48.838;2.322;2023-04-24T07:42:01;12.50;43.40
820;DHT22;392;48.838;2.322;2023-04-24T07:44:29;12.50;44.10
820;DHT22;392;48.838;2.322;2023-04-24T07:46:58;12.40;44.80
820;DHT22;392;48.838;2.322;2023-04-24T07:49:26;12.40;44.60
820;DHT22;392;48.838;2.322;2023-04-24T07:51:54;12.30;45.30
820;DHT22;392;48.838;2.322;2023-04-24T07:54:21;12.20;45.20
820;DHT22;392;48.838;2.322;2023-04-24T07:56:49;12.20;45.70
820;DHT22;392;48.838;2.322;2023-04-24T07:59:16;12.10;46.20
820;DHT22;392;48.838;2.322;2023-04-24T08:01:43;12.00;46.60
820;DHT22;392;48.838;2.322;2023-04-24T08:04:12;11.90;46.80
820;DHT22;392;48.838;2.322;2023-04-24T08:06:39;11.80;48.60
820;DHT22;392;48.838;2.322;2023-04-24T08:09:07;11.80;49.10
820;DHT22;392;48.838;2.322;2023-04-24T08:11:34;11.80;49.30
820;DHT22;392;48.838;2.322;2023-04-24T08:14:01;11.80;49.40
820;DHT22;392;48.838;2.322;2023-04-24T08:16:29;11.80;49.40
820;DHT22;392;48.838;2.322;2023-04-24T08:18:56;11.80;49.00
820;DHT22;392;48.838;2.322;2023-04-24T08:21:25;11.90;48.90
820;DHT22;392;48.838;2.322;2023-04-24T08:23:52;12.00;47.50
820;DHT22;392;48.838;2.322;2023-04-24T08:26:20;12.10;46.50
820;DHT22;392;48.838;2.322;2023-04-24T08:28:47;12.20;46.50
820;DHT22;392;48.838;2.322;2023-04-24T08:31:15;12.20;45.60
820;DHT22;392;48.838;2.322;2023-04-24T08:33:42;12.30;45.70
820;DHT22;392;48.838;2.322;2023-04-24T08:36:11;12.60;46.20
820;DHT22;392;48.838;2.322;2023-04-24T08:38:40;13.40;42.10
820;DHT22;392;48.838;2.322;2023-04-24T08:41:09;14.20;37.10
820;DHT22;392;48.838;2.322;2023-04-24T08:43:37;15.20;33.60
820;DHT22;392;48.838;2.322;2023-04-24T08:46:05;15.90;29.60
820;DHT22;392;48.838;2.322;2023-04-24T08:48:33;16.30;28.10
820;DHT22;392;48.838;2.322;2023-04-24T08:51:02;16.20;27.50
820;DHT22;392;48.838;2.322;2023-04-24T08:53:30;15.90;27.80
820;DHT22;392;48.838;2.322;2023-04-24T08:56:01;15.50;29.10
820;DHT22;392;48.838;2.322;2023-04-24T08:58:29;15.20;29.90
820;DHT22;392;48.838;2.322;2023-04-24T09:00:57;15.00;31.10
820;DHT22;392;48.838;2.322;2023-04-24T09:03:27;15.00;31.60
820;DHT22;392;48.838;2.322;2023-04-24T09:05:55;15.30;30.90
820;DHT22;392;48.838;2.322;2023-04-24T09:08:25;15.60;29.50
820;DHT22;392;48.838;2.322;2023-04-24T09:10:53;16.00;29.50
820;DHT22;392;48.838;2.322;2023-04-24T09:13:21;16.10;27.80
820;DHT22;392;48.838;2.322;2023-04-24T09:15:49;15.90;27.80
820;DHT22;392;48.838;2.322;2023-04-24T09:18:17;15.70;27.70
820;DHT22;392;48.838;2.322;2023-04-24T09:21:02;15.30;28.30
820;DHT22;392;48.838;2.322;2023-04-24T09:23:31;14.90;29.50
820;DHT22;392;48.838;2.322;2023-04-24T09:26:01;14.60;29.90
820;DHT22;392;48.838;2.322;2023-04-24T09:28:34;14.30;31.00
820;DHT22;392;48.838;2.322;2023-04-24T09:31:07;14.30;32.30
820;DHT22;392;48.838;2.322;2023-04-24T09:33:36;14.30;32.80
820;DHT22;392;48.838;2.322;2023-04-24T09:36:04;14.30;32.80
820;DHT22;392;48.838;2.322;2023-04-24T09:38:33;14.30;32.10
820;DHT22;392;48.838;2.322;2023-04-24T09:41:02;14.30;32.10
820;DHT22;392;48.838;2.322;2023-04-24T09:43:32;14.30;32.40
820;DHT22;392;48.838;2.322;2023-04-24T09:46:05;14.30;32.30
820;DHT22;392;48.838;2.322;2023-04-24T09:48:37;14.20;32.40
820;DHT22;392;48.838;2.322;2023-04-24T09:51:06;14.10;32.50
820;DHT22;392;48.838;2.322;2023-04-24T09:53:36;14.10;32.60
820;DHT22;392;48.838;2.322;2023-04-24T09:56:08;14.10;32.60
820;DHT22;392;48.838;2.322;2023-04-24T09:58:37;14.20;31.90
820;DHT22;392;48.838;2.322;2023-04-24T10:01:05;14.20;31.50
820;DHT22;392;48.838;2.322;2023-04-24T10:03:33;14.20;31.50
820;DHT22;392;48.838;2.322;2023-04-24T10:06:01;14.20;31.50
820;DHT22;392;48.838;2.322;2023-04-24T10:08:34;14.30;31.00
820;DHT22;392;48.838;2.322;2023-04-24T10:11:02;14.50;30.20
820;DHT22;392;48.838;2.322;2023-04-24T10:13:30;14.60;29.60
820;DHT22;392;48.838;2.322;2023-04-24T10:16:01;14.70;29.00
820;DHT22;392;48.838;2.322;2023-04-24T10:18:30;14.70;28.40
820;DHT22;392;48.838;2.322;2023-04-24T10:21:00;14.80;27.90
820;DHT22;392;48.838;2.322;2023-04-24T10:23:28;15.10;27.50
820;DHT22;392;48.838;2.322;2023-04-24T10:25:56;15.50;26.50
820;DHT22;392;48.838;2.322;2023-04-24T10:28:24;15.70;26.00
820;DHT22;392;48.838;2.322;2023-04-24T10:30:54;15.70;25.40
820;DHT22;392;48.838;2.322;2023-04-24T10:33:23;15.60;25.40
820;DHT22;392;48.838;2.322;2023-04-24T10:35:51;15.50;25.70
820;DHT22;392;48.838;2.322;2023-04-24T10:38:23;15.30;25.90
820;DHT22;392;48.838;2.322;2023-04-24T10:40:51;15.30;26.30
820;DHT22;392;48.838;2.322;2023-04-24T10:43:24;15.40;26.00
820;DHT22;392;48.838;2.322;2023-04-24T10:46:01;15.50;25.20
820;DHT22;392;48.838;2.322;2023-04-24T10:48:32;15.60;25.10
820;DHT22;392;48.838;2.322;2023-04-24T10:50:59;15.60;25.10
820;DHT22;392;48.838;2.322;2023-04-24T10:53:29;15.30;25.50
820;DHT22;392;48.838;2.322;2023-04-24T10:55:58;15.10;25.90
820;DHT22;392;48.838;2.322;2023-04-24T10:58:37;14.90;25.80
820;DHT22;392;48.838;2.322;2023-04-24T11:01:06;14.80;26.10
820;DHT22;392;48.838;2.322;2023-04-24T11:03:35;14.90;26.10
820;DHT22;392;48.838;2.322;2023-04-24T11:06:04;15.10;24.80
820;DHT22;392;48.838;2.322;2023-04-24T11:08:38;15.30;24.90
820;DHT22;392;48.838;2.322;2023-04-24T11:11:10;15.50;25.00
820;DHT22;392;48.838;2.322;2023-04-24T11:14:01;15.70;24.90
820;DHT22;392;48.838;2.322;2023-04-24T11:16:34;15.70;24.10
820;DHT22;392;48.838;2.322;2023-04-24T11:19:07;15.80;23.80
820;DHT22;392;48.838;2.322;2023-04-24T11:21:42;15.90;25.30
820;DHT22;392;48.838;2.322;2023-04-24T11:24:24;17.00;23.50
820;DHT22;392;48.838;2.322;2023-04-24T11:26:54;18.20;20.20
820;DHT22;392;48.838;2.322;2023-04-24T11:29:24;18.70;19.60
820;DHT22;392;48.838;2.322;2023-04-24T11:32:15;19.30;18.80
820;DHT22;392;48.838;2.322;2023-04-24T11:34:49;20.00;17.00
820;DHT22;392;48.838;2.322;2023-04-24T11:37:18;20.40;15.90
820;DHT22;392;48.838;2.322;2023-04-24T11:39:45;20.60;14.70
820;DHT22;392;48.838;2.322;2023-04-24T11:42:15;20.10;14.10
820;DHT22;392;48.838;2.322;2023-04-24T11:44:42;19.70;16.10
820;DHT22;392;48.838;2.322;2023-04-24T11:47:10;19.60;15.30
820;DHT22;392;48.838;2.322;2023-04-24T11:49:38;19.90;14.60
820;DHT22;392;48.838;2.322;2023-04-24T11:52:07;20.00;14.70
820;DHT22;392;48.838;2.322;2023-04-24T11:54:34;20.40;14.10
820;DHT22;392;48.838;2.322;2023-04-24T11:57:04;21.10;12.90
820;DHT22;392;48.838;2.322;2023-04-24T11:59:36;21.40;12.20
820;DHT22;392;48.838;2.322;2023-04-24T12:02:03;21.00;11.40
820;DHT22;392;48.838;2.322;2023-04-24T12:04:39;20.40;13.30
820;DHT22;392;48.838;2.322;2023-04-24T12:07:08;20.30;12.50
820;DHT22;392;48.838;2.322;2023-04-24T12:09:43;20.70;11.10
820;DHT22;392;48.838;2.322;2023-04-24T12:12:11;21.00;10.60
820;DHT22;392;48.838;2.322;2023-04-24T12:14:47;21.00;12.00
820;DHT22;392;48.838;2.322;2023-04-24T12:17:15;21.60;11.60
820;DHT22;392;48.838;2.322;2023-04-24T12:19:46;22.40;11.10
820;DHT22;392;48.838;2.322;2023-04-24T12:22:16;23.30;9.20
820;DHT22;392;48.838;2.322;2023-04-24T12:24:58;23.10;8.40
820;DHT22;392;48.838;2.322;2023-04-24T12:27:28;22.20;9.00
820;DHT22;392;48.838;2.322;2023-04-24T12:29:57;21.30;9.90
820;DHT22;392;48.838;2.322;2023-04-24T12:32:25;20.20;10.70
820;DHT22;392;48.838;2.322;2023-04-24T12:34:53;19.40;12.20
820;DHT22;392;48.838;2.322;2023-04-24T12:37:24;18.90;13.40
820;DHT22;392;48.838;2.322;2023-04-24T12:40:04;18.50;14.20
820;DHT22;392;48.838;2.322;2023-04-24T12:42:34;18.20;14.30
820;DHT22;392;48.838;2.322;2023-04-24T12:45:04;17.80;15.30
820;DHT22;392;48.838;2.322;2023-04-24T12:47:34;17.30;15.80
820;DHT22;392;48.838;2.322;2023-04-24T12:50:02;16.80;17.40
820;DHT22;392;48.838;2.322;2023-04-24T12:52:31;16.40;18.50
820;DHT22;392;48.838;2.322;2023-04-24T12:55:00;16.10;19.40
820;DHT22;392;48.838;2.322;2023-04-24T12:57:29;15.90;20.00
820;DHT22;392;48.838;2.322;2023-04-24T12:59:58;15.90;20.10
820;DHT22;392;48.838;2.322;2023-04-24T13:02:27;16.00;19.60
820;DHT22;392;48.838;2.322;2023-04-24T13:04:56;16.30;19.30
820;DHT22;392;48.838;2.322;2023-04-24T13:07:24;16.50;19.30
820;DHT22;392;48.838;2.322;2023-04-24T13:09:54;16.90;18.30
820;DHT22;392;48.838;2.322;2023-04-24T13:12:22;17.10;17.50
820;DHT22;392;48.838;2.322;2023-04-24T13:14:51;17.00;17.40
820;DHT22;392;48.838;2.322;2023-04-24T13:17:18;16.80;17.80
820;DHT22;392;48.838;2.322;2023-04-24T13:19:46;16.50;18.30
820;DHT22;392;48.838;2.322;2023-04-24T13:22:13;16.30;18.00
820;DHT22;392;48.838;2.322;2023-04-24T13:24:40;16.10;17.10
820;DHT22;392;48.838;2.322;2023-04-24T13:27:09;16.00;15.60
820;DHT22;392;48.838;2.322;2023-04-24T13:29:37;16.00;15.70
820;DHT22;392;48.838;2.322;2023-04-24T13:32:04;16.30;15.60
820;DHT22;392;48.838;2.322;2023-04-24T13:34:31;16.40;16.00
820;DHT22;392;48.838;2.322;2023-04-24T13:37:00;16.30;16.40
820;DHT22;392;48.838;2.322;2023-04-24T13:39:29;16.30;16.00
820;DHT22;392;48.838;2.322;2023-04-24T13:41:57;16.40;15.30
820;DHT22;392;48.838;2.322;2023-04-24T13:44:26;16.60;14.80
820;DHT22;392;48.838;2.322;2023-04-24T13:46:55;16.70;15.00
820;DHT22;392;48.838;2.322;2023-04-24T13:49:24;16.90;15.10
820;DHT22;392;48.838;2.322;2023-04-24T13:51:52;16.90;14.30
820;DHT22;392;48.838;2.322;2023-04-24T13:54:20;17.00;15.00
820;DHT22;392;48.838;2.322;2023-04-24T13:56:49;17.00;16.00
820;DHT22;392;48.838;2.322;2023-04-24T13:59:16;16.80;15.40
820;DHT22;392;48.838;2.322;2023-04-24T14:01:45;16.70;14.90
820;DHT22;392;48.838;2.322;2023-04-24T14:04:13;16.50;15.00
820;DHT22;392;48.838;2.322;2023-04-24T14:06:40;16.30;15.80
820;DHT22;392;48.838;2.322;2023-04-24T14:09:07;16.30;16.00
820;DHT22;392;48.838;2.322;2023-04-24T14:11:35;16.20;15.90
820;DHT22;392;48.838;2.322;2023-04-24T14:14:03;16.20;16.00
820;DHT22;392;48.838;2.322;2023-04-24T14:16:30;16.20;16.00
820;DHT22;392;48.838;2.322;2023-04-24T14:18:59;16.20;16.20
820;DHT22;392;48.838;2.322;2023-04-24T14:21:26;16.30;16.30
820;DHT22;392;48.838;2.322;2023-04-24T14:23:54;16.30;15.90
820;DHT22;392;48.838;2.322;2023-04-24T14:26:21;16.30;15.70
820;DHT22;392;48.838;2.322;2023-04-24T14:28:48;16.40;15.90
820;DHT22;392;48.838;2.322;2023-04-24T14:31:16;16.30;16.20
820;DHT22;392;48.838;2.322;2023-04-24T14:33:43;16.40;16.50
820;DHT22;392;48.838;2.322;2023-04-24T14:36:12;16.40;15.90
820;DHT22;392;48.838;2.322;2023-04-24T14:38:40;16.50;15.60
820;DHT22;392;48.838;2.322;2023-04-24T14:41:07;16.40;14.60
820;DHT22;392;48.838;2.322;2023-04-24T14:43:37;16.50;13.70
820;DHT22;392;48.838;2.322;2023-04-24T14:46:05;16.50;14.20
820;DHT22;392;48.838;2.322;2023-04-24T14:48:32;16.60;13.20
820;DHT22;392;48.838;2.322;2023-04-24T14:50:59;16.70;13.30
820;DHT22;392;48.838;2.322;2023-04-24T14:53:28;16.80;13.30
820;DHT22;392;48.838;2.322;2023-04-24T14:55:55;16.80;12.90
820;DHT22;392;48.838;2.322;2023-04-24T14:58:22;16.80;13.30
820;DHT22;392;48.838;2.322;2023-04-24T15:00:50;16.70;13.30
820;DHT22;392;48.838;2.322;2023-04-24T15:03:20;16.50;14.40
820;DHT22;392;48.838;2.322;2023-04-24T15:05:48;16.50;14.50
820;DHT22;392;48.838;2.322;2023-04-24T15:08:16;16.50;15.10
820;DHT22;392;48.838;2.322;2023-04-24T15:10:44;16.40;15.50
820;DHT22;392;48.838;2.322;2023-04-24T15:13:12;16.30;16.00
820;DHT22;392;48.838;2.322;2023-04-24T15:15:39;16.20;15.60
820;DHT22;392;48.838;2.322;2023-04-24T15:18:07;16.00;17.10
820;DHT22;392;48.838;2.322;2023-04-24T15:20:37;15.80;17.50
820;DHT22;392;48.838;2.322;2023-04-24T15:23:08;15.50;18.10
820;DHT22;392;48.838;2.322;2023-04-24T15:25:36;15.20;19.40
820;DHT22;392;48.838;2.322;2023-04-24T15:28:05;15.00;19.60
820;DHT22;392;48.838;2.322;2023-04-24T15:30:33;14.90;19.80
820;DHT22;392;48.838;2.322;2023-04-24T15:33:00;14.80;19.50
820;DHT22;392;48.838;2.322;2023-04-24T15:35:27;14.70;19.90
820;DHT22;392;48.838;2.322;2023-04-24T15:37:55;14.70;20.30
820;DHT22;392;48.838;2.322;2023-04-24T15:40:22;14.70;20.30
820;DHT22;392;48.838;2.322;2023-04-24T15:42:50;14.70;20.30
820;DHT22;392;48.838;2.322;2023-04-24T15:45:19;14.90;20.40
820;DHT22;392;48.838;2.322;2023-04-24T15:47:46;15.10;20.10
820;DHT22;392;48.838;2.322;2023-04-24T15:50:14;15.40;20.40
820;DHT22;392;48.838;2.322;2023-04-24T15:52:41;15.60;19.10
820;DHT22;392;48.838;2.322;2023-04-24T15:55:09;15.70;18.90
820;DHT22;392;48.838;2.322;2023-04-24T15:57:37;15.80;19.00
820;DHT22;392;48.838;2.322;2023-04-24T16:00:05;15.90;19.00
820;DHT22;392;48.838;2.322;2023-04-24T16:02:41;15.90;19.10
820;DHT22;392;48.838;2.322;2023-04-24T16:05:08;15.90;19.20
820;DHT22;392;48.838;2.322;2023-04-24T16:07:37;15.90;19.80
820;DHT22;392;48.838;2.322;2023-04-24T16:10:05;15.90;20.10
820;DHT22;392;48.838;2.322;2023-04-24T16:12:33;15.80;20.00
820;DHT22;392;48.838;2.322;2023-04-24T16:15:01;15.80;20.60
820;DHT22;392;48.838;2.322;2023-04-24T16:17:28;15.70;21.00
820;DHT22;392;48.838;2.322;2023-04-24T16:19:57;15.60;21.40
820;DHT22;392;48.838;2.322;2023-04-24T16:22:24;15.50;21.70
820;DHT22;392;48.838;2.322;2023-04-24T16:24:52;15.50;21.80
820;DHT22;392;48.838;2.322;2023-04-24T16:27:19;15.50;21.90
820;DHT22;392;48.838;2.322;2023-04-24T16:29:46;15.40;22.20
820;DHT22;392;48.838;2.322;2023-04-24T16:32:13;15.30;22.30
820;DHT22;392;48.838;2.322;2023-04-24T16:34:41;15.20;22.70
820;DHT22;392;48.838;2.322;2023-04-24T16:37:10;15.20;22.90
820;DHT22;392;48.838;2.322;2023-04-24T16:39:37;15.30;22.90
820;DHT22;392;48.838;2.322;2023-04-24T16:42:09;15.30;22.90
820;DHT22;392;48.838;2.322;2023-04-24T16:44:38;15.30;23.50
820;DHT22;392;48.838;2.322;2023-04-24T16:47:05;15.30;23.50
820;DHT22;392;48.838;2.322;2023-04-24T16:49:33;15.40;23.30